sensor_id;sensor_type;location;lat;lon;timestamp;pressure;altitude;pressure_sealevel;temperature;humidity
70544;BME280;58097;48.364;-1.224;2023-12-14T00:00:35;99674.94;;;7.39;97.07
70544;BME280;58097;48.364;-1.224;2023-12-14T00:03:01;99675.38;;;7.44;98.51
70544;BME280;58097;48.364;-1.224;2023-12-14T00:05:26;99670.59;;;7.46;98.92
70544;BME280;58097;48.364;-1.224;2023-12-14T00:07:51;99679.59;;;7.38;98.63
70544;BME280;58097;48.364;-1.224;2023-12-14T00:10:17;99685.22;;;7.46;99.35
70544;BME280;58097;48.364;-1.224;2023-12-14T00:12:45;99688.81;;;7.47;99.25
70544;BME280;58097;48.364;-1.224;2023-12-14T00:15:10;99693.75;;;7.43;98.72
70544;BME280;58097;48.364;-1.224;2023-12-14T00:17:36;99699.25;;;7.43;98.88
70544;BME280;58097;48.364;-1.224;2023-12-14T00:20:01;99705.50;;;7.36;97.94
70544;BME280;58097;48.364;-1.224;2023-12-14T00:22:28;99707.78;;;7.40;97.90
70544;BME280;58097;48.364;-1.224;2023-12-14T00:24:53;99713.16;;;7.42;98.67
70544;BME280;58097;48.364;-1.224;2023-12-14T00:27:18;99719.09;;;7.37;97.58
70544;BME280;58097;48.364;-1.224;2023-12-14T00:29:44;99716.19;;;7.39;97.51
70544;BME280;58097;48.364;-1.224;2023-12-14T00:32:09;99722.13;;;7.44;98.10
70544;BME280;58097;48.364;-1.224;2023-12-14T00:34:34;99730.22;;;7.36;97.41
70544;BME280;58097;48.364;-1.224;2023-12-14T00:37:00;99726.31;;;7.38;97.50
70544;BME280;58097;48.364;-1.224;2023-12-14T00:39:25;99730.22;;;7.36;96.90
70544;BME280;58097;48.364;-1.224;2023-12-14T00:41:51;99738.63;;;7.34;97.13
70544;BME280;58097;48.364;-1.224;2023-12-14T00:44:16;99740.50;;;7.34;97.17
70544;BME280;58097;48.364;-1.224;2023-12-14T00:46:41;99741.50;;;7.33;97.31
70544;BME280;58097;48.364;-1.224;2023-12-14T00:49:07;99749.75;;;7.33;97.38
70544;BME280;58097;48.364;-1.224;2023-12-14T00:51:33;99750.50;;;7.35;97.64
70544;BME280;58097;48.364;-1.224;2023-12-14T00:53:58;99751.06;;;7.29;96.28
70544;BME280;58097;48.364;-1.224;2023-12-14T00:56:24;99761.47;;;7.35;97.62
70544;BME280;58097;48.364;-1.224;2023-12-14T00:58:49;99764.94;;;7.37;97.66
70544;BME280;58097;48.364;-1.224;2023-12-14T01:01:14;99764.94;;;7.37;97.50
70544;BME280;58097;48.364;-1.224;2023-12-14T01:03:39;99769.44;;;7.38;96.99
70544;BME280;58097;48.364;-1.224;2023-12-14T01:06:05;99766.25;;;7.33;96.97
70544;BME280;58097;48.364;-1.224;2023-12-14T01:08:31;99774.22;;;7.36;97.29
70544;BME280;58097;48.364;-1.224;2023-12-14T01:10:57;99776.81;;;7.37;97.65
70544;BME280;58097;48.364;-1.224;2023-12-14T01:13:22;99781.44;;;7.37;97.18
70544;BME280;58097;48.364;-1.224;2023-12-14T01:15:47;99790.84;;;7.34;97.23
70544;BME280;58097;48.364;-1.224;2023-12-14T01:18:13;99790.00;;;7.34;96.53
70544;BME280;58097;48.364;-1.224;2023-12-14T01:20:38;99790.72;;;7.36;97.04
70544;BME280;58097;48.364;-1.224;2023-12-14T01:23:04;99800.25;;;7.41;97.75
70544;BME280;58097;48.364;-1.224;2023-12-14T01:25:29;99801.28;;;7.31;94.97
70544;BME280;58097;48.364;-1.224;2023-12-14T01:27:54;99804.59;;;7.34;97.08
70544;BME280;58097;48.364;-1.224;2023-12-14T01:30:20;99809.09;;;7.35;97.17
70544;BME280;58097;48.364;-1.224;2023-12-14T01:32:45;99810.09;;;7.34;96.81
70544;BME280;58097;48.364;-1.224;2023-12-14T01:35:11;99815.75;;;7.33;96.54
70544;BME280;58097;48.364;-1.224;2023-12-14T01:37:36;99818.63;;;7.31;96.26
70544;BME280;58097;48.364;-1.224;2023-12-14T01:40:01;99830.50;;;7.32;96.42
70544;BME280;58097;48.364;-1.224;2023-12-14T01:42:27;99827.03;;;7.39;97.86
70544;BME280;58097;48.364;-1.224;2023-12-14T01:44:52;99834.41;;;7.39;97.19
70544;BME280;58097;48.364;-1.224;2023-12-14T01:47:18;99831.94;;;7.36;96.14
70544;BME280;58097;48.364;-1.224;2023-12-14T01:49:43;99833.69;;;7.37;96.97
70544;BME280;58097;48.364;-1.224;2023-12-14T01:52:08;99854.09;;;7.34;96.09
70544;BME280;58097;48.364;-1.224;2023-12-14T01:54:34;99857.69;;;7.35;96.32
70544;BME280;58097;48.364;-1.224;2023-12-14T01:56:59;99866.97;;;7.34;95.96
70544;BME280;58097;48.364;-1.224;2023-12-14T01:59:25;99864.94;;;7.36;95.92
70544;BME280;58097;48.364;-1.224;2023-12-14T02:01:55;99860.88;;;7.30;95.04
70544;BME280;58097;48.364;-1.224;2023-12-14T02:04:23;99872.31;;;7.35;96.26
70544;BME280;58097;48.364;-1.224;2023-12-14T02:06:49;99873.03;;;7.37;95.93
70544;BME280;58097;48.364;-1.224;2023-12-14T02:09:14;99872.47;;;7.43;97.18
70544;BME280;58097;48.364;-1.224;2023-12-14T02:11:39;99868.13;;;7.41;96.34
70544;BME280;58097;48.364;-1.224;2023-12-14T02:14:06;99869.84;;;7.42;97.01
70544;BME280;58097;48.364;-1.224;2023-12-14T02:16:31;99879.13;;;7.41;96.04
70544;BME280;58097;48.364;-1.224;2023-12-14T02:18:57;99890.97;;;7.41;96.59
70544;BME280;58097;48.364;-1.224;2023-12-14T02:21:22;99891.13;;;7.40;96.24
70544;BME280;58097;48.364;-1.224;2023-12-14T02:23:48;99892.44;;;7.36;96.49
70544;BME280;58097;48.364;-1.224;2023-12-14T02:26:13;99897.78;;;7.28;95.35
70544;BME280;58097;48.364;-1.224;2023-12-14T02:28:39;99901.69;;;7.35;96.79
70544;BME280;58097;48.364;-1.224;2023-12-14T02:31:05;99901.25;;;7.30;96.20
70544;BME280;58097;48.364;-1.224;2023-12-14T02:33:30;99905.88;;;7.29;96.93
70544;BME280;58097;48.364;-1.224;2023-12-14T02:35:56;99910.94;;;7.24;96.85
70544;BME280;58097;48.364;-1.224;2023-12-14T02:38:21;99916.81;;;7.20;96.80
70544;BME280;58097;48.364;-1.224;2023-12-14T02:40:46;99925.75;;;7.12;96.10
70544;BME280;58097;48.364;-1.224;2023-12-14T02:43:12;99917.38;;;7.13;96.03
70544;BME280;58097;48.364;-1.224;2023-12-14T02:45:37;99926.78;;;7.11;96.44
70544;BME280;58097;48.364;-1.224;2023-12-14T02:48:03;99933.69;;;7.05;95.93
70544;BME280;58097;48.364;-1.224;2023-12-14T02:50:29;99936.72;;;7.02;95.54
70544;BME280;58097;48.364;-1.224;2023-12-14T02:52:54;99934.84;;;7.03;96.09
70544;BME280;58097;48.364;-1.224;2023-12-14T02:55:19;99941.63;;;6.99;96.14
70544;BME280;58097;48.364;-1.224;2023-12-14T02:57:44;99937.44;;;6.95;96.40
70544;BME280;58097;48.364;-1.224;2023-12-14T03:00:11;99943.59;;;6.87;96.06
70544;BME280;58097;48.364;-1.224;2023-12-14T03:02:36;99929.81;;;6.77;95.58
70544;BME280;58097;48.364;-1.224;2023-12-14T03:05:02;99940.94;;;6.76;96.17
70544;BME280;58097;48.364;-1.224;2023-12-14T03:07:27;99954.41;;;6.79;96.28
70544;BME280;58097;48.364;-1.224;2023-12-14T03:09:53;99953.19;;;6.72;95.55
70544;BME280;58097;48.364;-1.224;2023-12-14T03:12:18;99963.31;;;6.71;96.33
70544;BME280;58097;48.364;-1.224;2023-12-14T03:14:43;99963.59;;;6.68;95.92
70544;BME280;58097;48.364;-1.224;2023-12-14T03:17:09;99969.69;;;6.72;96.77
70544;BME280;58097;48.364;-1.224;2023-12-14T03:19:41;99980.94;;;6.69;96.31
70544;BME280;58097;48.364;-1.224;2023-12-14T03:22:07;99978.72;;;6.63;96.03
70544;BME280;58097;48.364;-1.224;2023-12-14T03:24:32;99984.56;;;6.69;96.54
70544;BME280;58097;48.364;-1.224;2023-12-14T03:26:57;99990.06;;;6.69;96.31
70544;BME280;58097;48.364;-1.224;2023-12-14T03:29:23;99993.16;;;6.65;96.47
70544;BME280;58097;48.364;-1.224;2023-12-14T03:31:48;99980.72;;;6.61;96.02
70544;BME280;58097;48.364;-1.224;2023-12-14T03:34:13;99978.38;;;6.56;95.59
70544;BME280;58097;48.364;-1.224;2023-12-14T03:36:39;99972.28;;;6.52;95.58
70544;BME280;58097;48.364;-1.224;2023-12-14T03:39:04;99972.75;;;6.58;96.03
70544;BME280;58097;48.364;-1.224;2023-12-14T03:41:29;99973.91;;;6.55;96.09
70544;BME280;58097;48.364;-1.224;2023-12-14T03:43:55;99966.81;;;6.52;95.99
70544;BME280;58097;48.364;-1.224;2023-12-14T03:46:20;99971.41;;;6.52;95.93
70544;BME280;58097;48.364;-1.224;2023-12-14T03:48:45;99974.03;;;6.53;96.10
70544;BME280;58097;48.364;-1.224;2023-12-14T03:51:11;99991.97;;;6.58;96.45
70544;BME280;58097;48.364;-1.224;2023-12-14T03:53:36;99985.75;;;6.56;96.34
70544;BME280;58097;48.364;-1.224;2023-12-14T03:56:01;99991.25;;;6.56;96.37
70544;BME280;58097;48.364;-1.224;2023-12-14T03:58:27;99999.34;;;6.57;96.31
70544;BME280;58097;48.364;-1.224;2023-12-14T04:00:52;100006.84;;;6.55;96.66
70544;BME280;58097;48.364;-1.224;2023-12-14T04:03:18;100004.22;;;6.53;96.54
70544;BME280;58097;48.364;-1.224;2023-12-14T04:05:43;100010.88;;;6.51;96.44
70544;BME280;58097;48.364;-1.224;2023-12-14T04:08:09;100016.97;;;6.55;96.64
70544;BME280;58097;48.364;-1.224;2023-12-14T04:10:35;100031.34;;;6.47;95.69
70544;BME280;58097;48.364;-1.224;2023-12-14T04:13:00;100034.44;;;6.53;96.30
70544;BME280;58097;48.364;-1.224;2023-12-14T04:15:26;100040.94;;;6.52;96.03
70544;BME280;58097;48.364;-1.224;2023-12-14T04:17:51;100040.47;;;6.47;95.83
70544;BME280;58097;48.364;-1.224;2023-12-14T04:20:16;100043.34;;;6.46;96.71
70544;BME280;58097;48.364;-1.224;2023-12-14T04:22:45;100040.94;;;6.52;96.63
70544;BME280;58097;48.364;-1.224;2023-12-14T04:25:10;100053.91;;;6.50;97.05
70544;BME280;58097;48.364;-1.224;2023-12-14T04:27:36;100060.41;;;6.49;96.83
70544;BME280;58097;48.364;-1.224;2023-12-14T04:30:01;100065.63;;;6.52;96.68
70544;BME280;58097;48.364;-1.224;2023-12-14T04:32:27;100066.13;;;6.58;97.09
70544;BME280;58097;48.364;-1.224;2023-12-14T04:34:52;100061.50;;;6.58;97.36
70544;BME280;58097;48.364;-1.224;2023-12-14T04:37:17;100065.97;;;6.59;97.09
70544;BME280;58097;48.364;-1.224;2023-12-14T04:39:43;100068.72;;;6.59;97.10
70544;BME280;58097;48.364;-1.224;2023-12-14T04:42:08;100070.47;;;6.60;96.89
70544;BME280;58097;48.364;-1.224;2023-12-14T04:44:33;100082.84;;;6.55;96.15
70544;BME280;58097;48.364;-1.224;2023-12-14T04:46:59;100079.97;;;6.56;96.83
70544;BME280;58097;48.364;-1.224;2023-12-14T04:49:24;100079.38;;;6.52;96.51
70544;BME280;58097;48.364;-1.224;2023-12-14T04:51:49;100076.50;;;6.54;96.94
70544;BME280;58097;48.364;-1.224;2023-12-14T04:54:15;100083.84;;;6.53;96.67
70544;BME280;58097;48.364;-1.224;2023-12-14T04:56:40;100087.75;;;6.51;96.66
70544;BME280;58097;48.364;-1.224;2023-12-14T04:59:06;100086.25;;;6.47;96.11
70544;BME280;58097;48.364;-1.224;2023-12-14T05:01:32;100087.78;;;6.40;95.90
70544;BME280;58097;48.364;-1.224;2023-12-14T05:03:57;100089.81;;;6.38;96.38
70544;BME280;58097;48.364;-1.224;2023-12-14T05:06:23;100090.03;;;6.35;96.62
70544;BME280;58097;48.364;-1.224;2023-12-14T05:08:48;100090.16;;;6.33;96.49
70544;BME280;58097;48.364;-1.224;2023-12-14T05:11:13;100096.78;;;6.31;96.75
70544;BME280;58097;48.364;-1.224;2023-12-14T05:13:39;100108.03;;;6.28;96.87
70544;BME280;58097;48.364;-1.224;2023-12-14T05:16:05;100105.41;;;6.26;96.56
70544;BME280;58097;48.364;-1.224;2023-12-14T05:18:30;100101.44;;;6.19;95.80
70544;BME280;58097;48.364;-1.224;2023-12-14T05:20:56;100096.84;;;6.19;96.40
70544;BME280;58097;48.364;-1.224;2023-12-14T05:23:21;100099.56;;;6.19;96.77
70544;BME280;58097;48.364;-1.224;2023-12-14T05:25:46;100112.56;;;6.17;96.67
70544;BME280;58097;48.364;-1.224;2023-12-14T05:28:12;100101.72;;;6.16;96.80
70544;BME280;58097;48.364;-1.224;2023-12-14T05:30:39;100111.94;;;6.14;96.67
70544;BME280;58097;48.364;-1.224;2023-12-14T05:33:04;100118.44;;;6.13;96.59
70544;BME280;58097;48.364;-1.224;2023-12-14T05:35:30;100117.69;;;6.11;96.66
70544;BME280;58097;48.364;-1.224;2023-12-14T05:37:55;100118.81;;;6.08;96.69
70544;BME280;58097;48.364;-1.224;2023-12-14T05:40:20;100141.00;;;6.05;96.46
70544;BME280;58097;48.364;-1.224;2023-12-14T05:42:46;100146.75;;;6.02;96.47
70544;BME280;58097;48.364;-1.224;2023-12-14T05:45:11;100144.13;;;6.01;96.41
70544;BME280;58097;48.364;-1.224;2023-12-14T05:47:36;100161.34;;;6.03;96.88
70544;BME280;58097;48.364;-1.224;2023-12-14T05:50:03;100158.59;;;6.03;97.02
70544;BME280;58097;48.364;-1.224;2023-12-14T05:52:29;100168.56;;;6.04;97.02
70544;BME280;58097;48.364;-1.224;2023-12-14T05:54:54;100175.78;;;6.05;96.93
70544;BME280;58097;48.364;-1.224;2023-12-14T05:57:20;100169.31;;;6.06;97.07
70544;BME280;58097;48.364;-1.224;2023-12-14T05:59:45;100177.66;;;6.04;97.21
70544;BME280;58097;48.364;-1.224;2023-12-14T06:02:10;100187.75;;;6.04;97.25
70544;BME280;58097;48.364;-1.224;2023-12-14T06:04:36;100195.88;;;6.05;97.17
70544;BME280;58097;48.364;-1.224;2023-12-14T06:07:01;100191.38;;;6.04;97.15
70544;BME280;58097;48.364;-1.224;2023-12-14T06:09:26;100190.50;;;6.04;97.27
70544;BME280;58097;48.364;-1.224;2023-12-14T06:12:00;100194.25;;;6.03;97.38
70544;BME280;58097;48.364;-1.224;2023-12-14T06:14:26;100196.88;;;6.04;97.43
70544;BME280;58097;48.364;-1.224;2023-12-14T06:16:52;100195.00;;;6.05;97.83
70544;BME280;58097;48.364;-1.224;2023-12-14T06:19:17;100191.25;;;6.06;97.81
70544;BME280;58097;48.364;-1.224;2023-12-14T06:21:42;100206.72;;;6.07;97.67
70544;BME280;58097;48.364;-1.224;2023-12-14T06:24:08;100214.94;;;6.07;97.88
70544;BME280;58097;48.364;-1.224;2023-12-14T06:26:33;100221.22;;;6.09;97.87
70544;BME280;58097;48.364;-1.224;2023-12-14T06:28:58;100225.94;;;6.07;97.81
70544;BME280;58097;48.364;-1.224;2023-12-14T06:31:23;100245.03;;;6.08;97.94
70544;BME280;58097;48.364;-1.224;2023-12-14T06:33:49;100249.66;;;6.08;97.79
70544;BME280;58097;48.364;-1.224;2023-12-14T06:36:18;100239.66;;;6.07;97.75
70544;BME280;58097;48.364;-1.224;2023-12-14T06:38:43;100236.16;;;6.05;97.71
70544;BME280;58097;48.364;-1.224;2023-12-14T06:41:18;100240.91;;;6.03;97.57
70544;BME280;58097;48.364;-1.224;2023-12-14T06:43:43;100251.00;;;6.02;97.60
70544;BME280;58097;48.364;-1.224;2023-12-14T06:46:09;100242.03;;;6.00;97.72
70544;BME280;58097;48.364;-1.224;2023-12-14T06:48:34;100242.28;;;5.97;97.90
70544;BME280;58097;48.364;-1.224;2023-12-14T06:51:00;100245.00;;;5.97;97.78
70544;BME280;58097;48.364;-1.224;2023-12-14T06:53:25;100241.41;;;5.97;98.02
70544;BME280;58097;48.364;-1.224;2023-12-14T06:55:50;100248.63;;;5.98;98.14
70544;BME280;58097;48.364;-1.224;2023-12-14T06:58:17;100246.88;;;5.97;98.20
70544;BME280;58097;48.364;-1.224;2023-12-14T07:00:42;100245.13;;;5.96;98.19
70544;BME280;58097;48.364;-1.224;2023-12-14T07:03:08;100248.00;;;5.94;98.19
70544;BME280;58097;48.364;-1.224;2023-12-14T07:05:33;100251.00;;;5.91;98.21
70544;BME280;58097;48.364;-1.224;2023-12-14T07:07:58;100264.84;;;5.89;98.08
70544;BME280;58097;48.364;-1.224;2023-12-14T07:10:24;100269.53;;;5.87;98.07
70544;BME280;58097;48.364;-1.224;2023-12-14T07:12:50;100283.38;;;5.86;98.14
70544;BME280;58097;48.364;-1.224;2023-12-14T07:15:15;100286.25;;;5.84;98.20
70544;BME280;58097;48.364;-1.224;2023-12-14T07:17:41;100303.72;;;5.83;98.41
70544;BME280;58097;48.364;-1.224;2023-12-14T07:20:07;100295.22;;;5.86;98.66
70544;BME280;58097;48.364;-1.224;2023-12-14T07:22:32;100307.81;;;5.89;99.01
70544;BME280;58097;48.364;-1.224;2023-12-14T07:24:57;100285.78;;;5.90;98.99
70544;BME280;58097;48.364;-1.224;2023-12-14T07:27:23;100282.81;;;5.94;99.14
70544;BME280;58097;48.364;-1.224;2023-12-14T07:29:48;100284.41;;;5.96;99.36
70544;BME280;58097;48.364;-1.224;2023-12-14T07:32:14;100286.91;;;5.99;99.36
70544;BME280;58097;48.364;-1.224;2023-12-14T07:34:39;100286.78;;;6.01;99.29
70544;BME280;58097;48.364;-1.224;2023-12-14T07:37:04;100285.78;;;6.02;99.12
70544;BME280;58097;48.364;-1.224;2023-12-14T07:39:31;100279.31;;;6.03;99.10
70544;BME280;58097;48.364;-1.224;2023-12-14T07:41:56;100296.75;;;6.02;99.17
70544;BME280;58097;48.364;-1.224;2023-12-14T07:44:21;100313.97;;;6.04;99.16
70544;BME280;58097;48.364;-1.224;2023-12-14T07:46:47;100305.75;;;6.04;99.28
70544;BME280;58097;48.364;-1.224;2023-12-14T07:49:13;100303.00;;;6.04;99.30
70544;BME280;58097;48.364;-1.224;2023-12-14T07:51:38;100300.25;;;6.04;99.39
70544;BME280;58097;48.364;-1.224;2023-12-14T07:54:04;100308.38;;;6.05;99.33
70544;BME280;58097;48.364;-1.224;2023-12-14T07:56:29;100306.13;;;5.99;99.65
70544;BME280;58097;48.364;-1.224;2023-12-14T07:58:55;100315.97;;;6.02;99.32
70544;BME280;58097;48.364;-1.224;2023-12-14T08:01:20;100309.47;;;6.03;99.55
70544;BME280;58097;48.364;-1.224;2023-12-14T08:03:46;100328.56;;;6.04;99.68
70544;BME280;58097;48.364;-1.224;2023-12-14T08:06:11;100340.28;;;6.06;99.72
70544;BME280;58097;48.364;-1.224;2023-12-14T08:08:37;100329.31;;;6.06;99.72
70544;BME280;58097;48.364;-1.224;2023-12-14T08:11:03;100331.09;;;6.07;99.70
70544;BME280;58097;48.364;-1.224;2023-12-14T08:13:29;100336.22;;;6.12;99.81
70544;BME280;58097;48.364;-1.224;2023-12-14T08:15:55;100342.44;;;6.14;100.00
70544;BME280;58097;48.364;-1.224;2023-12-14T08:18:20;100343.06;;;6.17;100.00
70544;BME280;58097;48.364;-1.224;2023-12-14T08:20:45;100344.56;;;6.21;100.00
70544;BME280;58097;48.364;-1.224;2023-12-14T08:23:11;100346.81;;;6.28;100.00
70544;BME280;58097;48.364;-1.224;2023-12-14T08:25:36;100352.06;;;6.31;100.00
70544;BME280;58097;48.364;-1.224;2023-12-14T08:28:01;100348.94;;;6.35;100.00
70544;BME280;58097;48.364;-1.224;2023-12-14T08:30:27;100356.94;;;6.38;100.00
70544;BME280;58097;48.364;-1.224;2023-12-14T08:32:52;100355.81;;;6.41;100.00
70544;BME280;58097;48.364;-1.224;2023-12-14T08:35:18;100350.22;;;6.42;100.00
70544;BME280;58097;48.364;-1.224;2023-12-14T08:37:44;100362.81;;;6.45;100.00
70544;BME280;58097;48.364;-1.224;2023-12-14T08:40:09;100368.44;;;6.43;100.00
70544;BME280;58097;48.364;-1.224;2023-12-14T08:42:35;100367.31;;;6.46;99.88
70544;BME280;58097;48.364;-1.224;2023-12-14T08:45:00;100368.94;;;6.48;100.00
70544;BME280;58097;48.364;-1.224;2023-12-14T08:47:26;100374.16;;;6.51;100.00
70544;BME280;58097;48.364;-1.224;2023-12-14T08:49:51;100382.28;;;6.53;100.00
70544;BME280;58097;48.364;-1.224;2023-12-14T08:52:17;100383.78;;;6.57;100.00
70544;BME280;58097;48.364;-1.224;2023-12-14T08:54:42;100383.53;;;6.60;100.00
70544;BME280;58097;48.364;-1.224;2023-12-14T08:57:10;100386.00;;;6.63;100.00
70544;BME280;58097;48.364;-1.224;2023-12-14T08:59:36;100380.41;;;6.65;100.00
70544;BME280;58097;48.364;-1.224;2023-12-14T09:02:01;100373.94;;;6.66;100.00
70544;BME280;58097;48.364;-1.224;2023-12-14T09:04:26;100387.66;;;6.66;100.00
70544;BME280;58097;48.364;-1.224;2023-12-14T09:06:52;100391.63;;;6.62;99.98
70544;BME280;58097;48.364;-1.224;2023-12-14T09:09:18;100403.50;;;6.62;100.00
70544;BME280;58097;48.364;-1.224;2023-12-14T09:11:44;100399.75;;;6.63;100.00
70544;BME280;58097;48.364;-1.224;2023-12-14T09:14:09;100412.59;;;6.63;100.00
70544;BME280;58097;48.364;-1.224;2023-12-14T09:16:34;100416.00;;;6.66;100.00
70544;BME280;58097;48.364;-1.224;2023-12-14T09:19:00;100418.50;;;6.69;100.00
70544;BME280;58097;48.364;-1.224;2023-12-14T09:21:25;100427.50;;;6.71;100.00
70544;BME280;58097;48.364;-1.224;2023-12-14T09:23:51;100446.84;;;6.70;100.00
70544;BME280;58097;48.364;-1.224;2023-12-14T09:26:18;100438.09;;;6.76;100.00
70544;BME280;58097;48.364;-1.224;2023-12-14T09:28:44;100434.34;;;6.77;100.00
70544;BME280;58097;48.364;-1.224;2023-12-14T09:31:09;100437.72;;;6.80;100.00
70544;BME280;58097;48.364;-1.224;2023-12-14T09:33:35;100442.97;;;6.83;100.00
70544;BME280;58097;48.364;-1.224;2023-12-14T09:36:01;100440.09;;;6.85;100.00
70544;BME280;58097;48.364;-1.224;2023-12-14T09:38:26;100429.97;;;6.86;100.00
70544;BME280;58097;48.364;-1.224;2023-12-14T09:40:51;100438.59;;;6.81;100.00
70544;BME280;58097;48.364;-1.224;2023-12-14T09:43:17;100448.47;;;6.83;100.00
70544;BME280;58097;48.364;-1.224;2023-12-14T09:45:42;100448.34;;;6.85;100.00
70544;BME280;58097;48.364;-1.224;2023-12-14T09:48:10;100452.69;;;6.88;100.00
70544;BME280;58097;48.364;-1.224;2023-12-14T09:50:38;100464.69;;;6.87;100.00
70544;BME280;58097;48.364;-1.224;2023-12-14T09:53:04;100482.94;;;6.88;100.00
70544;BME280;58097;48.364;-1.224;2023-12-14T09:55:29;100486.66;;;6.87;100.00
70544;BME280;58097;48.364;-1.224;2023-12-14T09:57:56;100497.28;;;6.91;100.00
70544;BME280;58097;48.364;-1.224;2023-12-14T10:00:40;100505.66;;;6.90;100.00
70544;BME280;58097;48.364;-1.224;2023-12-14T10:03:23;100506.41;;;6.92;100.00
70544;BME280;58097;48.364;-1.224;2023-12-14T10:05:51;100506.53;;;6.90;100.00
70544;BME280;58097;48.364;-1.224;2023-12-14T10:08:17;100493.03;;;6.87;100.00
70544;BME280;58097;48.364;-1.224;2023-12-14T10:10:43;100495.03;;;6.85;100.00
70544;BME280;58097;48.364;-1.224;2023-12-14T10:13:09;100498.28;;;6.90;100.00
70544;BME280;58097;48.364;-1.224;2023-12-14T10:15:42;100499.28;;;6.89;100.00
70544;BME280;58097;48.364;-1.224;2023-12-14T10:18:07;100504.03;;;6.87;100.00
70544;BME280;58097;48.364;-1.224;2023-12-14T10:20:33;100509.03;;;6.93;100.00
70544;BME280;58097;48.364;-1.224;2023-12-14T10:22:58;100518.81;;;6.97;100.00
70544;BME280;58097;48.364;-1.224;2023-12-14T10:25:23;100511.66;;;7.06;100.00
70544;BME280;58097;48.364;-1.224;2023-12-14T10:27:52;100507.66;;;7.10;100.00
70544;BME280;58097;48.364;-1.224;2023-12-14T10:30:20;100516.53;;;7.13;100.00
70544;BME280;58097;48.364;-1.224;2023-12-14T10:32:49;100511.78;;;7.15;100.00
70544;BME280;58097;48.364;-1.224;2023-12-14T10:35:15;100512.53;;;7.18;100.00
70544;BME280;58097;48.364;-1.224;2023-12-14T10:37:42;100511.53;;;7.19;100.00
70544;BME280;58097;48.364;-1.224;2023-12-14T10:40:09;100514.28;;;7.19;100.00
70544;BME280;58097;48.364;-1.224;2023-12-14T10:42:38;100509.91;;;7.16;100.00
70544;BME280;58097;48.364;-1.224;2023-12-14T10:45:05;100504.28;;;7.18;100.00
70544;BME280;58097;48.364;-1.224;2023-12-14T10:47:31;100514.28;;;7.19;100.00
70544;BME280;58097;48.364;-1.224;2023-12-14T10:50:00;100512.16;;;7.22;100.00
70544;BME280;58097;48.364;-1.224;2023-12-14T10:52:26;100507.31;;;7.26;100.00
70544;BME280;58097;48.364;-1.224;2023-12-14T10:54:56;100508.81;;;7.30;100.00
70544;BME280;58097;48.364;-1.224;2023-12-14T10:57:23;100519.53;;;7.33;100.00
70544;BME280;58097;48.364;-1.224;2023-12-14T10:59:49;100529.78;;;7.31;100.00
70544;BME280;58097;48.364;-1.224;2023-12-14T11:02:14;100524.78;;;7.36;100.00
70544;BME280;58097;48.364;-1.224;2023-12-14T11:04:57;100522.03;;;7.36;100.00
70544;BME280;58097;48.364;-1.224;2023-12-14T11:07:50;100524.03;;;7.34;100.00
70544;BME280;58097;48.364;-1.224;2023-12-14T11:10:20;100523.16;;;7.33;100.00
70544;BME280;58097;48.364;-1.224;2023-12-14T11:15:18;100517.81;;;7.32;100.00
70544;BME280;58097;48.364;-1.224;2023-12-14T11:20:48;100518.94;;;7.29;100.00
70544;BME280;58097;48.364;-1.224;2023-12-14T11:25:41;100527.53;;;7.36;100.00
70544;BME280;58097;48.364;-1.224;2023-12-14T11:28:07;100525.53;;;7.38;100.00
70544;BME280;58097;48.364;-1.224;2023-12-14T11:30:36;100523.91;;;7.35;100.00
70544;BME280;58097;48.364;-1.224;2023-12-14T11:33:02;100531.53;;;7.32;100.00
70544;BME280;58097;48.364;-1.224;2023-12-14T11:35:28;100527.44;;;7.26;100.00
70544;BME280;58097;48.364;-1.224;2023-12-14T11:37:53;100521.06;;;7.26;100.00
70544;BME280;58097;48.364;-1.224;2023-12-14T11:40:21;100522.06;;;7.25;100.00
70544;BME280;58097;48.364;-1.224;2023-12-14T11:43:01;100516.78;;;7.22;100.00
70544;BME280;58097;48.364;-1.224;2023-12-14T11:45:27;100517.66;;;7.22;100.00
70544;BME280;58097;48.364;-1.224;2023-12-14T11:47:53;100512.16;;;7.22;100.00
70544;BME280;58097;48.364;-1.224;2023-12-14T11:50:18;100517.19;;;7.28;100.00
70544;BME280;58097;48.364;-1.224;2023-12-14T11:52:44;100520.06;;;7.27;100.00
70544;BME280;58097;48.364;-1.224;2023-12-14T11:55:14;100510.94;;;7.26;100.00
70544;BME280;58097;48.364;-1.224;2023-12-14T11:57:39;100513.03;;;7.23;100.00
70544;BME280;58097;48.364;-1.224;2023-12-14T12:00:10;100510.94;;;7.26;100.00
70544;BME280;58097;48.364;-1.224;2023-12-14T12:02:36;100510.81;;;7.28;100.00
70544;BME280;58097;48.364;-1.224;2023-12-14T12:05:01;100506.94;;;7.30;100.00
70544;BME280;58097;48.364;-1.224;2023-12-14T12:07:27;100511.16;;;7.34;100.00
70544;BME280;58097;48.364;-1.224;2023-12-14T12:09:52;100510.91;;;7.37;100.00
70544;BME280;58097;48.364;-1.224;2023-12-14T12:12:17;100504.94;;;7.32;100.00
70544;BME280;58097;48.364;-1.224;2023-12-14T12:14:43;100510.41;;;7.43;100.00
70544;BME280;58097;48.364;-1.224;2023-12-14T12:17:08;100499.88;;;7.49;100.00
70544;BME280;58097;48.364;-1.224;2023-12-14T12:19:36;100501.91;;;7.46;100.00
70544;BME280;58097;48.364;-1.224;2023-12-14T12:22:02;100496.00;;;7.51;100.00
70544;BME280;58097;48.364;-1.224;2023-12-14T12:24:28;100499.63;;;7.52;100.00
70544;BME280;58097;48.364;-1.224;2023-12-14T12:26:54;100495.53;;;7.57;100.00
70544;BME280;58097;48.364;-1.224;2023-12-14T12:29:21;100496.53;;;7.56;100.00
70544;BME280;58097;48.364;-1.224;2023-12-14T12:31:46;100492.50;;;7.60;100.00
70544;BME280;58097;48.364;-1.224;2023-12-14T12:34:12;100500.91;;;7.59;100.00
70544;BME280;58097;48.364;-1.224;2023-12-14T12:36:37;100506.88;;;7.64;100.00
70544;BME280;58097;48.364;-1.224;2023-12-14T12:39:03;100502.00;;;7.67;100.00
70544;BME280;58097;48.364;-1.224;2023-12-14T12:41:31;100512.47;;;7.73;100.00
70544;BME280;58097;48.364;-1.224;2023-12-14T12:43:56;100506.44;;;7.80;100.00
70544;BME280;58097;48.364;-1.224;2023-12-14T12:46:22;100505.72;;;7.77;100.00
70544;BME280;58097;48.364;-1.224;2023-12-14T12:48:48;100507.31;;;7.80;100.00
70544;BME280;58097;48.364;-1.224;2023-12-14T12:51:14;100508.47;;;7.77;100.00